createdAt,value
2019-03-30T00:02:29.819Z,24.18
2019-03-30T00:05:04.472Z,22.95
2019-03-30T00:07:39.072Z,23.90
2019-03-30T00:10:13.915Z,22.30
2019-03-30T00:12:48.486Z,23.38
2019-03-30T00:15:23.412Z,23.60
2019-03-30T00:17:57.949Z,22.80
2019-03-30T00:20:32.519Z,25.05
2019-03-30T00:23:07.158Z,23.52
2019-03-30T00:25:41.833Z,24.77
2019-03-30T00:28:16.467Z,24.18
2019-03-30T00:30:51.036Z,27.70
2019-03-30T00:33:25.635Z,25.35
2019-03-30T00:36:00.177Z,25.27
2019-03-30T00:38:34.761Z,25.30
2019-03-30T00:41:09.297Z,25.48
2019-03-30T00:43:43.974Z,25.52
2019-03-30T00:46:18.490Z,26.10
2019-03-30T00:48:53.310Z,26.62
2019-03-30T00:51:27.940Z,26.23
2019-03-30T00:54:02.863Z,27.37
2019-03-30T00:56:37.516Z,26.85
2019-03-30T00:59:12.073Z,26.77
2019-03-30T01:01:46.680Z,27.75
2019-03-30T01:04:21.239Z,28.50
2019-03-30T01:06:55.886Z,28.45
2019-03-30T01:09:30.425Z,28.57
2019-03-30T01:12:04.976Z,27.80
2019-03-30T01:14:39.586Z,28.50
2019-03-30T01:17:14.014Z,27.90
2019-03-30T01:20:01.954Z,27.75
2019-03-30T01:22:25.093Z,29.12
2019-03-30T01:24:59.616Z,29.05
2019-03-30T01:27:34.276Z,27.42
2019-03-30T01:30:22.178Z,29.12
2019-03-30T01:32:45.181Z,28.67
2019-03-30T01:35:19.917Z,30.10
2019-03-30T01:37:54.688Z,29.27
2019-03-30T01:40:29.222Z,32.28
2019-03-30T01:43:03.746Z,29.82
2019-03-30T01:45:38.300Z,30.85
2019-03-30T01:48:13.096Z,29.37
2019-03-30T01:50:47.755Z,28.83
2019-03-30T01:53:22.277Z,28.75
2019-03-30T01:55:56.900Z,29.60
2019-03-30T01:58:31.680Z,29.60
2019-03-30T02:01:06.328Z,28.07
2019-03-30T02:03:40.865Z,28.75
2019-03-30T02:06:15.562Z,30.08
2019-03-30T02:08:50.113Z,32.60
2019-03-30T02:11:24.952Z,29.00
2019-03-30T02:13:59.404Z,27.13
2019-03-30T02:16:34.098Z,29.70
2019-03-30T02:19:08.632Z,30.30
2019-03-30T02:21:43.659Z,29.25
2019-03-30T02:24:18.362Z,27.20
2019-03-30T02:26:52.899Z,28.07
2019-03-30T02:29:27.635Z,28.27
2019-03-30T02:32:02.631Z,30.10
2019-03-30T02:34:37.488Z,28.42
2019-03-30T02:37:11.918Z,29.52
2019-03-30T02:39:46.467Z,27.95
2019-03-30T02:42:21.732Z,29.42
2019-03-30T02:44:56.461Z,28.27
2019-03-30T02:47:31.015Z,28.75
2019-03-30T02:50:05.771Z,27.30
2019-03-30T02:52:40.347Z,28.95
2019-03-30T02:55:15.027Z,29.25
2019-03-30T02:57:49.572Z,31.27
2019-03-30T03:00:24.203Z,27.58
2019-03-30T03:02:58.843Z,29.15
2019-03-30T03:05:33.489Z,28.65
2019-03-30T03:08:08.033Z,27.80
2019-03-30T03:10:44.934Z,29.55
2019-03-30T03:13:19.510Z,30.12
2019-03-30T03:15:54.130Z,28.40
2019-03-30T03:18:28.689Z,28.55
2019-03-30T03:21:07.747Z,30.15
2019-03-30T03:23:39.413Z,29.72
2019-03-30T03:26:14.071Z,28.87
2019-03-30T03:28:48.660Z,28.75
2019-03-30T03:31:23.494Z,29.12
2019-03-30T03:33:58.089Z,28.70
2019-03-30T03:36:32.894Z,29.32
2019-03-30T03:39:08.636Z,29.95
2019-03-30T03:41:43.400Z,30.02
2019-03-30T03:44:17.937Z,29.37
2019-03-30T03:46:53.222Z,31.33
2019-03-30T03:49:27.763Z,30.92
2019-03-30T03:52:02.871Z,30.32
2019-03-30T03:54:37.546Z,30.37
2019-03-30T03:57:12.198Z,29.00
2019-03-30T03:59:46.642Z,29.75
2019-03-30T04:02:21.246Z,29.98
2019-03-30T04:04:56.124Z,30.55
2019-03-30T04:07:31.370Z,31.60
2019-03-30T04:10:08.147Z,30.40
2019-03-30T04:12:44.371Z,28.87
2019-03-30T04:15:27.963Z,28.12
2019-03-30T04:18:02.718Z,30.02
2019-03-30T04:20:37.218Z,31.93
2019-03-30T04:23:11.732Z,30.27
2019-03-30T04:25:46.422Z,28.45
2019-03-30T04:28:21.257Z,30.85
2019-03-30T04:30:55.830Z,28.50
2019-03-30T04:33:30.430Z,29.50
2019-03-30T04:36:06.440Z,28.73
2019-03-30T04:38:41.087Z,29.82
2019-03-30T04:41:15.699Z,30.75
2019-03-30T04:43:50.367Z,32.03
2019-03-30T04:46:24.941Z,30.00
2019-03-30T04:48:59.375Z,29.05
2019-03-30T04:51:34.171Z,29.35
2019-03-30T04:54:08.578Z,28.17
2019-03-30T04:56:43.599Z,28.85
2019-03-30T04:59:18.466Z,29.30
2019-03-30T05:01:53.152Z,29.25
2019-03-30T05:04:27.685Z,28.07
2019-03-30T05:07:02.211Z,29.92
2019-03-30T05:09:36.739Z,28.45
2019-03-30T05:12:11.260Z,27.85
2019-03-30T05:14:45.923Z,28.75
2019-03-30T05:17:20.364Z,29.32
2019-03-30T05:19:54.936Z,28.70
2019-03-30T05:22:29.561Z,27.80
2019-03-30T05:25:04.348Z,28.98
2019-03-30T05:27:38.877Z,27.62
2019-03-30T05:30:13.923Z,27.22
2019-03-30T05:32:48.469Z,30.25
2019-03-30T05:35:23.032Z,27.67
2019-03-30T05:37:57.529Z,28.83
2019-03-30T05:40:32.703Z,31.55
2019-03-30T05:43:07.276Z,32.85
2019-03-30T05:45:41.841Z,32.90
2019-03-30T05:48:16.378Z,32.15
2019-03-30T05:50:52.734Z,32.83
2019-03-30T05:53:27.306Z,32.38
2019-03-30T05:56:01.873Z,30.05
2019-03-30T05:58:36.384Z,33.55
2019-03-30T06:01:10.929Z,33.60
2019-03-30T06:03:45.522Z,34.45
2019-03-30T06:06:20.070Z,34.18
2019-03-30T06:08:54.590Z,32.75
2019-03-30T06:11:29.052Z,31.65
2019-03-30T06:14:05.238Z,29.87
2019-03-30T06:16:39.784Z,31.17
2019-03-30T06:19:14.350Z,29.70
2019-03-30T06:21:48.906Z,32.60
2019-03-30T06:24:23.728Z,31.97
2019-03-30T06:26:58.562Z,32.15
2019-03-30T06:29:33.190Z,33.30
2019-03-30T06:32:07.718Z,30.62
2019-03-30T06:34:42.273Z,32.63
2019-03-30T06:37:16.842Z,34.13
2019-03-30T06:39:51.464Z,34.60
2019-03-30T06:42:26.022Z,32.17
2019-03-30T06:45:00.552Z,33.35
2019-03-30T06:47:35.534Z,32.45
2019-03-30T06:50:09.994Z,32.45
2019-03-30T06:52:56.806Z,33.20
2019-03-30T06:55:20.732Z,32.28
2019-03-30T06:57:55.485Z,31.87
2019-03-30T07:00:36.900Z,33.28
2019-03-30T07:03:11.406Z,34.05
2019-03-30T07:05:46.120Z,29.50
2019-03-30T07:08:20.852Z,33.33
2019-03-30T07:10:55.603Z,34.00
2019-03-30T07:13:30.118Z,32.13
2019-03-30T07:16:04.780Z,32.75
2019-03-30T07:18:39.346Z,33.48
2019-03-30T07:21:13.894Z,32.28
2019-03-30T07:23:48.529Z,33.10
2019-03-30T07:26:23.469Z,31.62
2019-03-30T07:28:58.102Z,31.97
2019-03-30T07:31:32.915Z,29.98
2019-03-30T07:34:07.577Z,33.45
2019-03-30T07:36:42.186Z,31.95
2019-03-30T07:39:17.072Z,32.05
2019-03-30T07:41:51.619Z,28.92
2019-03-30T07:44:26.351Z,29.77
2019-03-30T07:47:00.796Z,28.35
2019-03-30T07:49:35.426Z,29.00
2019-03-30T07:52:10.430Z,29.50
2019-03-30T07:54:44.960Z,28.83
2019-03-30T07:57:19.620Z,29.72
2019-03-30T07:59:54.242Z,29.15
2019-03-30T08:02:28.925Z,31.10
2019-03-30T08:05:03.718Z,31.55
2019-03-30T08:07:38.274Z,32.23
2019-03-30T08:10:12.863Z,44.10
2019-03-30T08:12:47.347Z,43.35
2019-03-30T08:15:22.106Z,41.88
2019-03-30T08:17:56.579Z,41.42
2019-03-30T08:20:31.142Z,35.92
2019-03-30T08:23:05.772Z,35.48
2019-03-30T08:25:40.478Z,37.17
2019-03-30T08:28:15.131Z,35.88
2019-03-30T08:30:50.121Z,34.95
2019-03-30T08:33:24.807Z,34.75
2019-03-30T08:35:59.336Z,33.58
2019-03-30T08:38:33.934Z,35.52
2019-03-30T08:41:08.496Z,34.50
2019-03-30T08:43:43.434Z,35.38
2019-03-30T08:46:17.941Z,34.70
2019-03-30T08:48:52.531Z,34.05
2019-03-30T08:51:27.096Z,33.50
2019-03-30T08:54:01.964Z,33.67
2019-03-30T08:56:36.529Z,31.77
2019-03-30T08:59:11.211Z,33.38
2019-03-30T09:01:45.808Z,32.98
2019-03-30T09:04:20.407Z,32.38
2019-03-30T09:06:55.271Z,32.05
2019-03-30T09:09:29.833Z,32.53
2019-03-30T09:12:04.533Z,31.42
2019-03-30T09:14:39.095Z,28.90
2019-03-30T09:17:13.741Z,29.52
2019-03-30T09:19:48.449Z,30.50
2019-03-30T09:22:23.396Z,30.10
2019-03-30T09:24:59.160Z,29.52
2019-03-30T09:27:33.711Z,28.98
2019-03-30T09:30:09.495Z,29.55
2019-03-30T09:32:45.238Z,29.45
2019-03-30T09:35:20.065Z,28.65
2019-03-30T09:37:54.618Z,27.37
2019-03-30T09:40:29.385Z,27.48
2019-03-30T09:43:04.036Z,26.95
2019-03-30T09:45:38.479Z,26.77
2019-03-30T09:48:13.504Z,27.02
2019-03-30T09:50:48.118Z,25.32
2019-03-30T09:53:23.074Z,23.27
2019-03-30T09:55:57.622Z,24.87
2019-03-30T09:58:32.486Z,24.65
2019-03-30T10:01:07.102Z,23.75
2019-03-30T10:03:41.844Z,22.65
2019-03-30T10:06:16.425Z,23.67
2019-03-30T10:08:51.274Z,22.07
2019-03-30T10:11:27.202Z,20.80
2019-03-30T10:14:01.759Z,23.38
2019-03-30T10:16:36.418Z,23.32
2019-03-30T10:19:10.974Z,20.88
2019-03-30T10:21:45.604Z,21.35
2019-03-30T10:24:20.293Z,21.62
2019-03-30T10:26:54.862Z,21.25
2019-03-30T10:29:29.518Z,21.75
2019-03-30T10:32:04.090Z,21.05
2019-03-30T10:34:39.887Z,20.55
2019-03-30T10:37:15.529Z,21.27
2019-03-30T10:39:50.059Z,21.85
2019-03-30T10:42:24.531Z,20.08
2019-03-30T10:44:59.077Z,19.32
2019-03-30T10:47:33.888Z,19.67
2019-03-30T10:50:08.803Z,19.45
2019-03-30T10:52:43.416Z,19.98
2019-03-30T10:55:18.012Z,18.85
2019-03-30T10:57:52.819Z,19.17
2019-03-30T11:00:45.598Z,17.57
2019-03-30T11:03:20.141Z,17.60
2019-03-30T11:05:54.901Z,17.27
2019-03-30T11:08:29.358Z,16.17
2019-03-30T11:11:05.717Z,16.70
2019-03-30T11:13:40.419Z,15.68
2019-03-30T11:16:14.963Z,15.23
2019-03-30T11:18:49.593Z,15.08
2019-03-30T11:21:24.214Z,14.63
2019-03-30T11:23:58.912Z,14.13
2019-03-30T11:26:33.781Z,15.28
2019-03-30T11:29:08.419Z,14.98
2019-03-30T11:31:43.507Z,15.10
2019-03-30T11:34:18.088Z,14.50
2019-03-30T11:36:52.584Z,14.78
2019-03-30T11:39:28.242Z,14.50
2019-03-30T11:42:03.083Z,14.10
2019-03-30T11:44:37.862Z,13.95
2019-03-30T11:47:13.106Z,12.98
2019-03-30T11:49:47.650Z,13.45
2019-03-30T11:52:22.223Z,13.05
2019-03-30T11:54:56.878Z,12.60
2019-03-30T11:57:31.419Z,12.18
2019-03-30T12:00:06.169Z,12.47
2019-03-30T12:02:40.883Z,12.37
2019-03-30T12:05:15.439Z,12.37
2019-03-30T12:07:49.989Z,12.07
2019-03-30T12:10:25.085Z,11.75
2019-03-30T12:12:59.750Z,11.55
2019-03-30T12:15:34.345Z,11.53
2019-03-30T12:18:08.806Z,12.03
2019-03-30T12:20:43.759Z,12.05
2019-03-30T12:23:19.539Z,11.63
2019-03-30T12:25:54.254Z,11.97
2019-03-30T12:28:28.813Z,12.25
2019-03-30T12:31:04.469Z,10.93
2019-03-30T12:33:39.107Z,11.55
2019-03-30T12:36:13.768Z,10.95
2019-03-30T12:38:48.358Z,11.50
2019-03-30T12:41:22.921Z,11.18
2019-03-30T12:43:57.526Z,11.15
2019-03-30T12:46:32.570Z,11.08
2019-03-30T12:49:07.016Z,11.33
2019-03-30T12:51:41.638Z,11.35
2019-03-30T12:54:16.242Z,11.10
2019-03-30T12:56:50.785Z,10.93
2019-03-30T12:59:25.339Z,11.05
2019-03-30T13:01:59.890Z,11.10
2019-03-30T13:04:34.520Z,11.48
2019-03-30T13:07:09.172Z,11.45
2019-03-30T13:09:43.675Z,11.68
2019-03-30T13:12:18.249Z,10.65
2019-03-30T13:14:52.975Z,10.72
2019-03-30T13:17:27.552Z,10.63
2019-03-30T13:20:03.989Z,9.75
2019-03-30T13:22:38.673Z,9.60
2019-03-30T13:25:14.201Z,9.60
2019-03-30T13:27:48.787Z,9.90
2019-03-30T13:30:23.635Z,9.60
2019-03-30T13:32:59.961Z,8.98
2019-03-30T13:35:35.689Z,8.75
2019-03-30T13:38:10.311Z,8.53
2019-03-30T13:40:45.039Z,8.25
2019-03-30T13:43:19.587Z,8.28
2019-03-30T13:45:54.129Z,9.20
2019-03-30T13:48:28.910Z,8.75
2019-03-30T13:51:04.459Z,8.68
2019-03-30T13:53:39.001Z,9.43
2019-03-30T13:56:17.374Z,9.40
2019-03-30T13:58:49.890Z,8.88
2019-03-30T14:01:24.315Z,8.43
2019-03-30T14:03:58.845Z,8.65
2019-03-30T14:06:33.487Z,10.28
2019-03-30T14:09:09.198Z,12.70
2019-03-30T14:11:43.770Z,12.60
2019-03-30T14:14:18.232Z,14.63
2019-03-30T14:16:54.746Z,30.52
2019-03-30T14:19:29.443Z,41.60
2019-03-30T14:22:03.978Z,49.58
2019-03-30T14:24:38.625Z,52.90
2019-03-30T14:27:13.527Z,90.15
2019-03-30T14:29:48.476Z,50.58
2019-03-30T14:32:23.190Z,50.00
2019-03-30T14:34:57.701Z,43.02
2019-03-30T14:37:32.272Z,43.28
2019-03-30T14:40:08.268Z,38.23
2019-03-30T14:42:43.127Z,38.42
2019-03-30T14:45:17.690Z,38.08
2019-03-30T14:47:52.233Z,35.68
2019-03-30T14:50:26.769Z,34.43
2019-03-30T14:53:01.279Z,32.88
2019-03-30T14:55:39.302Z,30.75
2019-03-30T14:58:12.774Z,32.63
2019-03-30T15:00:47.468Z,29.87
2019-03-30T15:03:21.893Z,28.67
2019-03-30T15:05:56.587Z,26.48
2019-03-30T15:08:31.023Z,28.83
2019-03-30T15:11:05.624Z,27.77
2019-03-30T15:13:40.139Z,28.80
2019-03-30T15:16:14.674Z,26.60
2019-03-30T15:18:50.900Z,25.60
2019-03-30T15:21:25.527Z,24.37
2019-03-30T15:24:00.086Z,20.90
2019-03-30T15:26:34.661Z,21.00
2019-03-30T15:29:09.251Z,19.27
2019-03-30T15:31:43.700Z,18.73
2019-03-30T15:34:18.321Z,19.20
2019-03-30T15:36:53.476Z,17.82
2019-03-30T15:39:28.016Z,16.12
2019-03-30T15:42:02.992Z,15.48
2019-03-30T15:44:37.456Z,16.42
2019-03-30T15:47:12.685Z,15.25
2019-03-30T15:49:47.221Z,14.45
2019-03-30T15:52:21.876Z,14.58
2019-03-30T15:54:56.763Z,13.55
2019-03-30T15:57:32.701Z,13.13
2019-03-30T16:00:08.061Z,13.15
2019-03-30T16:02:43.060Z,12.53
2019-03-30T16:05:18.228Z,11.50
2019-03-30T16:07:52.758Z,10.35
2019-03-30T16:10:27.319Z,12.37
2019-03-30T16:13:01.959Z,11.08
2019-03-30T16:15:36.481Z,10.85
2019-03-30T16:18:10.905Z,8.90
2019-03-30T16:20:45.432Z,9.50
2019-03-30T16:23:19.945Z,9.95
2019-03-30T16:25:54.389Z,8.75
2019-03-30T16:28:28.997Z,8.63
2019-03-30T16:31:03.591Z,8.43
2019-03-30T16:33:38.240Z,14.87
2019-03-30T16:36:12.797Z,37.05
2019-03-30T16:38:48.954Z,14.83
2019-03-30T16:41:23.654Z,14.00
2019-03-30T16:43:58.309Z,12.05
2019-03-30T16:46:33.192Z,11.65
2019-03-30T16:49:07.930Z,10.98
2019-03-30T16:51:42.361Z,11.30
2019-03-30T16:54:16.936Z,11.28
2019-03-30T16:56:51.581Z,11.40
2019-03-30T16:59:26.318Z,10.78
2019-03-30T17:02:00.850Z,10.23
2019-03-30T17:04:35.646Z,11.88
2019-03-30T17:07:10.069Z,13.25
2019-03-30T17:09:44.716Z,12.95
2019-03-30T17:12:19.349Z,10.58
2019-03-30T17:14:53.890Z,10.50
2019-03-30T17:17:28.316Z,11.30
2019-03-30T17:20:03.139Z,10.58
2019-03-30T17:22:37.637Z,11.20
2019-03-30T17:25:12.224Z,13.32
2019-03-30T17:27:57.943Z,11.28
2019-03-30T17:30:23.282Z,11.57
2019-03-30T17:32:57.727Z,11.78
2019-03-30T17:35:32.187Z,11.90
2019-03-30T17:38:06.727Z,11.00
2019-03-30T17:40:41.468Z,10.13
2019-03-30T17:43:16.021Z,9.98
2019-03-30T17:45:50.496Z,10.08
2019-03-30T17:48:25.086Z,10.68
2019-03-30T17:50:59.806Z,9.73
2019-03-30T17:53:34.501Z,10.38
2019-03-30T17:56:08.985Z,12.40
2019-03-30T17:58:43.863Z,10.75
2019-03-30T18:01:18.601Z,10.55
2019-03-30T18:03:53.099Z,10.60
2019-03-30T18:06:27.617Z,11.65
2019-03-30T18:09:02.140Z,12.93
2019-03-30T18:11:36.757Z,12.10
2019-03-30T18:14:11.289Z,11.43
2019-03-30T18:16:45.931Z,12.63
2019-03-30T18:19:20.401Z,12.80
2019-03-30T18:21:55.137Z,13.22
2019-03-30T18:24:29.690Z,12.53
2019-03-30T18:27:04.517Z,12.47
2019-03-30T18:29:39.230Z,12.03
2019-03-30T18:32:14.005Z,12.55
2019-03-30T18:34:48.429Z,11.78
2019-03-30T18:37:23.284Z,12.33
2019-03-30T18:39:57.826Z,13.95
2019-03-30T18:42:32.461Z,13.85
2019-03-30T18:45:08.555Z,15.50
2019-03-30T18:47:43.259Z,16.30
2019-03-30T18:50:17.949Z,15.72
2019-03-30T18:52:52.930Z,15.35
2019-03-30T18:55:27.588Z,15.08
2019-03-30T18:58:02.252Z,15.93
2019-03-30T19:00:36.784Z,15.95
2019-03-30T19:03:11.419Z,15.75
2019-03-30T19:05:48.166Z,14.85
2019-03-30T19:08:23.005Z,14.85
2019-03-30T19:10:57.573Z,15.70
2019-03-30T19:13:32.143Z,14.78
2019-03-30T19:16:06.673Z,14.95
2019-03-30T19:18:41.408Z,15.48
2019-03-30T19:21:16.005Z,14.68
2019-03-30T19:23:50.636Z,14.87
2019-03-30T19:26:25.312Z,13.93
2019-03-30T19:28:59.768Z,14.78
2019-03-30T19:31:34.403Z,13.75
2019-03-30T19:34:10.407Z,13.72
2019-03-30T19:36:45.189Z,14.68
2019-03-30T19:39:20.328Z,14.45
2019-03-30T19:41:54.898Z,13.80
2019-03-30T19:44:30.491Z,13.70
2019-03-30T19:47:05.231Z,13.98
2019-03-30T19:49:39.770Z,13.75
2019-03-30T19:52:14.409Z,13.58
2019-03-30T19:54:49.038Z,13.80
2019-03-30T19:57:27.382Z,13.22
2019-03-30T20:00:00.395Z,13.93
2019-03-30T20:02:35.314Z,12.70
2019-03-30T20:05:09.973Z,13.83
2019-03-30T20:07:45.326Z,13.75
2019-03-30T20:10:20.019Z,13.78
2019-03-30T20:12:54.659Z,13.20
2019-03-30T20:15:29.226Z,12.82
2019-03-30T20:18:04.071Z,13.40
2019-03-30T20:20:38.557Z,13.75
2019-03-30T20:23:13.247Z,13.10
2019-03-30T20:25:48.255Z,12.63
2019-03-30T20:28:23.041Z,12.18
2019-03-30T20:30:57.592Z,11.05
2019-03-30T20:33:33.000Z,12.33
2019-03-30T20:36:07.640Z,11.60
2019-03-30T20:38:42.763Z,12.35
2019-03-30T20:41:17.325Z,11.53
2019-03-30T20:43:51.924Z,11.48
2019-03-30T20:46:26.640Z,11.83
2019-03-30T20:49:01.193Z,12.28
2019-03-30T20:51:36.042Z,14.58
2019-03-30T20:54:10.561Z,14.20
2019-03-30T20:56:45.243Z,13.30
2019-03-30T20:59:19.786Z,13.55
2019-03-30T21:01:54.340Z,13.38
2019-03-30T21:04:28.803Z,12.95
2019-03-30T21:07:03.752Z,13.00
2019-03-30T21:09:38.346Z,12.40
2019-03-30T21:12:13.140Z,12.95
2019-03-30T21:14:47.694Z,12.40
2019-03-30T21:17:22.118Z,12.68
2019-03-30T21:19:56.573Z,13.05
2019-03-30T21:22:31.341Z,12.03
2019-03-30T21:25:07.257Z,12.63
2019-03-30T21:27:41.807Z,12.37
2019-03-30T21:30:16.330Z,12.07
2019-03-30T21:32:51.086Z,12.43
2019-03-30T21:35:25.623Z,12.55
2019-03-30T21:38:00.261Z,11.30
2019-03-30T21:40:34.884Z,11.97
2019-03-30T21:43:09.432Z,11.80
2019-03-30T21:45:44.149Z,12.05
2019-03-30T21:48:18.686Z,12.23
2019-03-30T21:50:53.487Z,11.20
2019-03-30T21:53:27.985Z,11.57
2019-03-30T21:56:02.487Z,12.37
2019-03-30T21:58:37.058Z,11.28
2019-03-30T22:01:12.008Z,12.15
2019-03-30T22:03:46.468Z,11.70
2019-03-30T22:06:21.279Z,12.60
2019-03-30T22:08:55.788Z,12.73
2019-03-30T22:11:30.366Z,11.73
2019-03-30T22:14:05.231Z,11.80
2019-03-30T22:16:39.962Z,12.70
2019-03-30T22:19:14.619Z,11.63
2019-03-30T22:21:49.232Z,11.95
2019-03-30T22:24:23.864Z,11.57
2019-03-30T22:26:58.273Z,12.53
2019-03-30T22:29:32.851Z,12.63
2019-03-30T22:32:07.393Z,11.65
2019-03-30T22:34:42.711Z,12.18
2019-03-30T22:37:17.241Z,11.10
2019-03-30T22:39:51.654Z,12.20
2019-03-30T22:42:26.098Z,13.28
2019-03-30T22:45:00.631Z,12.80
2019-03-30T22:47:35.421Z,13.62
2019-03-30T22:50:10.123Z,12.82
2019-03-30T22:52:44.662Z,12.00
2019-03-30T22:55:19.315Z,12.23
2019-03-30T22:57:53.774Z,12.37
2019-03-30T23:00:45.734Z,12.63
2019-03-30T23:03:20.272Z,13.50
2019-03-30T23:05:54.973Z,13.30
2019-03-30T23:08:29.516Z,12.58
2019-03-30T23:11:04.187Z,12.78
2019-03-30T23:13:38.781Z,13.83
2019-03-30T23:16:14.863Z,12.90
2019-03-30T23:18:49.396Z,12.37
2019-03-30T23:21:24.117Z,13.32
2019-03-30T23:23:58.747Z,13.00
2019-03-30T23:26:33.474Z,13.03
2019-03-30T23:29:08.082Z,13.45
2019-03-30T23:31:43.781Z,13.03
2019-03-30T23:34:18.449Z,12.82
2019-03-30T23:36:53.658Z,14.40
2019-03-30T23:39:28.274Z,12.40
2019-03-30T23:42:05.076Z,13.40
2019-03-30T23:44:39.696Z,13.25
2019-03-30T23:47:14.410Z,14.07
2019-03-30T23:49:48.995Z,14.00
2019-03-30T23:52:23.626Z,14.15
2019-03-30T23:54:58.111Z,13.40
2019-03-30T23:57:32.892Z,14.07
